createdAt,value
2018-10-09T00:00:26.733Z,7.00
2018-10-09T00:05:30.149Z,5.00
2018-10-09T00:10:33.648Z,4.00
2018-10-09T00:15:37.121Z,6.20
2018-10-09T00:20:40.556Z,5.50
2018-10-09T00:25:43.964Z,4.80
2018-10-09T00:30:47.404Z,7.00
2018-10-09T00:35:50.820Z,5.00
2018-10-09T00:40:54.256Z,4.00
2018-10-09T00:45:56.694Z,5.00
2018-10-09T00:51:00.120Z,5.00
2018-10-09T00:56:03.531Z,5.00
2018-10-09T01:01:06.987Z,5.80
2018-10-09T01:06:10.416Z,4.50
2018-10-09T01:11:13.865Z,5.00
2018-10-09T01:16:17.265Z,4.75
2018-10-09T01:21:20.764Z,3.80
2018-10-09T01:26:24.201Z,6.00
2018-10-09T01:31:27.612Z,5.50
2018-10-09T01:36:31.040Z,5.80
2018-10-09T01:41:34.460Z,5.40
2018-10-09T01:46:37.868Z,4.00
2018-10-09T01:51:41.297Z,5.50
2018-10-09T01:56:44.704Z,5.00
2018-10-09T02:01:48.116Z,6.00
2018-10-09T02:06:51.534Z,4.00
2018-10-09T02:11:54.939Z,6.00
2018-10-09T02:16:58.357Z,6.00
2018-10-09T02:22:01.773Z,3.80
2018-10-09T02:27:05.212Z,3.75
2018-10-09T02:32:08.648Z,3.00
2018-10-09T02:37:12.043Z,4.00
2018-10-09T02:42:15.452Z,4.50
2018-10-09T02:47:18.863Z,3.00
2018-10-09T02:52:22.274Z,3.25
2018-10-09T02:57:25.680Z,4.00
2018-10-09T03:02:29.160Z,4.00
2018-10-09T03:07:32.564Z,4.00
2018-10-09T03:12:35.987Z,4.00
2018-10-09T03:17:39.432Z,4.00
2018-10-09T03:22:42.910Z,4.40
2018-10-09T03:27:46.322Z,3.50
2018-10-09T03:32:49.732Z,4.00
2018-10-09T03:37:53.151Z,5.20
2018-10-09T03:42:56.568Z,4.00
2018-10-09T03:47:59.976Z,4.00
2018-10-09T03:53:03.412Z,4.00
2018-10-09T03:58:07.083Z,5.00
2018-10-09T04:03:10.496Z,4.50
2018-10-09T04:08:13.961Z,5.80
2018-10-09T04:13:17.389Z,6.00
2018-10-09T04:18:20.835Z,5.80
2018-10-09T04:23:24.262Z,6.00
2018-10-09T04:28:27.713Z,7.75
2018-10-09T04:33:31.175Z,6.20
2018-10-09T04:38:34.599Z,6.00
2018-10-09T04:43:38.024Z,7.00
2018-10-09T04:48:41.435Z,4.50
2018-10-09T04:53:44.869Z,6.60
2018-10-09T04:58:48.297Z,6.50
2018-10-09T05:03:51.734Z,6.00
2018-10-09T05:08:55.150Z,6.75
2018-10-09T05:13:58.584Z,7.00
2018-10-09T05:19:02.025Z,6.20
2018-10-09T05:24:05.448Z,6.75
2018-10-09T05:29:08.877Z,6.60
2018-10-09T05:34:12.321Z,5.00
2018-10-09T05:39:15.758Z,7.00
2018-10-09T05:44:19.256Z,7.00
2018-10-09T05:49:22.643Z,7.75
2018-10-09T05:54:26.101Z,8.20
2018-10-09T05:59:29.536Z,8.25
2018-10-09T06:04:32.960Z,8.00
2018-10-09T06:09:36.400Z,8.00
2018-10-09T06:14:39.832Z,9.00
2018-10-09T06:19:43.252Z,8.25
2018-10-09T06:24:46.668Z,8.00
2018-10-09T06:29:50.100Z,8.00
2018-10-09T06:34:53.525Z,9.00
2018-10-09T06:39:56.960Z,9.00
2018-10-09T06:45:00.423Z,11.00
2018-10-09T06:50:03.995Z,11.00
2018-10-09T06:55:07.428Z,11.80
2018-10-09T07:00:10.892Z,12.00
2018-10-09T07:05:14.333Z,12.00
2018-10-09T07:10:17.767Z,13.80
2018-10-09T07:15:21.209Z,13.00
2018-10-09T07:20:24.644Z,13.00
2018-10-09T07:25:28.099Z,13.00
2018-10-09T07:30:31.532Z,13.50
2018-10-09T07:35:34.956Z,13.20
2018-10-09T07:40:38.378Z,12.00
2018-10-09T07:45:41.823Z,13.00
2018-10-09T07:50:45.264Z,13.75
2018-10-09T07:55:48.701Z,13.60
2018-10-09T08:00:52.133Z,13.25
2018-10-09T08:05:55.570Z,12.75
2018-10-09T08:10:59.065Z,13.00
2018-10-09T08:16:02.557Z,13.25
2018-10-09T08:21:06.122Z,13.00
2018-10-09T08:26:09.551Z,14.00
2018-10-09T08:31:13.015Z,12.80
2018-10-09T08:36:16.506Z,14.00
2018-10-09T08:41:20.075Z,18.20
2018-10-09T08:46:23.506Z,28.40
2018-10-09T08:51:26.881Z,29.50
2018-10-09T08:56:30.438Z,29.00
2018-10-09T09:01:33.881Z,29.75
2018-10-09T09:06:37.329Z,29.50
2018-10-09T09:11:40.781Z,29.00
2018-10-09T09:16:44.250Z,28.25
2018-10-09T09:21:47.729Z,29.50
2018-10-09T09:26:51.218Z,30.00
2018-10-09T09:31:54.670Z,30.60
2018-10-09T09:36:58.153Z,28.50
2018-10-09T09:42:01.577Z,30.50
2018-10-09T09:47:05.025Z,30.75
2018-10-09T09:52:08.555Z,31.00
2018-10-09T09:57:12.045Z,29.80
2018-10-09T10:02:15.481Z,29.75
2018-10-09T10:07:18.920Z,30.00
2018-10-09T10:12:22.369Z,29.00
2018-10-09T10:17:25.813Z,30.00
2018-10-09T10:22:29.375Z,29.00
2018-10-09T10:27:33.070Z,27.40
2018-10-09T10:32:36.500Z,27.75
2018-10-09T10:37:39.943Z,28.00
2018-10-09T10:42:43.760Z,27.75
2018-10-09T10:47:47.189Z,28.20
2018-10-09T10:52:50.715Z,28.00
2018-10-09T10:57:54.149Z,28.00
2018-10-09T11:02:57.585Z,26.75
2018-10-09T11:08:01.127Z,25.20
2018-10-09T11:13:04.510Z,25.00
2018-10-09T11:18:07.945Z,27.00
2018-10-09T11:23:11.395Z,25.00
2018-10-09T11:28:14.869Z,24.20
2018-10-09T11:33:18.356Z,21.75
2018-10-09T11:38:21.765Z,24.00
2018-10-09T11:43:25.212Z,22.40
2018-10-09T11:48:28.661Z,25.00
2018-10-09T11:53:32.105Z,22.60
2018-10-09T11:58:35.568Z,21.00
2018-10-09T12:03:38.988Z,21.75
2018-10-09T12:08:42.421Z,21.75
2018-10-09T12:13:45.901Z,20.25
2018-10-09T12:18:49.358Z,21.00
2018-10-09T12:23:52.837Z,21.80
2018-10-09T12:28:56.369Z,18.50
2018-10-09T12:33:59.797Z,20.00
2018-10-09T12:39:04.235Z,18.60
2018-10-09T12:44:07.881Z,21.25
2018-10-09T12:49:11.333Z,21.75
2018-10-09T12:54:14.763Z,20.60
2018-10-09T12:59:18.226Z,18.80
2018-10-09T13:04:21.647Z,19.25
2018-10-09T13:09:25.143Z,18.20
2018-10-09T13:14:28.572Z,19.75
2018-10-09T13:19:32.038Z,19.40
2018-10-09T13:24:35.494Z,22.75
2018-10-09T13:29:38.929Z,19.00
2018-10-09T13:34:42.339Z,20.00
2018-10-09T13:39:45.773Z,20.00
2018-10-09T13:50:25.291Z,20.25
2018-10-09T13:55:28.701Z,18.75
2018-10-09T14:00:32.211Z,19.50
2018-10-09T14:05:35.633Z,18.00
2018-10-09T14:10:39.059Z,18.00
2018-10-09T14:15:42.537Z,17.75
2018-10-09T14:20:45.978Z,18.00
2018-10-09T14:25:49.441Z,18.25
2018-10-09T14:30:52.889Z,18.00
2018-10-09T14:35:56.396Z,18.50
2018-10-09T14:41:00.031Z,17.60
2018-10-09T14:46:03.826Z,16.00
2018-10-09T14:51:07.539Z,18.00
2018-10-09T14:56:10.972Z,15.00
2018-10-09T15:01:14.701Z,14.00
2018-10-09T15:06:18.401Z,15.00
2018-10-09T15:11:21.884Z,16.00
2018-10-09T15:16:25.625Z,16.50
2018-10-09T15:21:29.115Z,17.50
2018-10-09T15:26:32.964Z,16.00
2018-10-09T15:31:36.651Z,17.50
2018-10-09T15:36:40.239Z,17.00
2018-10-09T15:41:43.914Z,16.80
2018-10-09T15:46:47.526Z,17.00
2018-10-09T15:51:51.341Z,17.40
2018-10-09T15:56:55.176Z,16.60
2018-10-09T16:01:58.642Z,18.75
2018-10-09T16:07:02.121Z,21.50
2018-10-09T16:12:05.576Z,18.25
2018-10-09T16:17:09.060Z,18.00
2018-10-09T16:22:12.535Z,17.75
2018-10-09T16:27:16.005Z,17.20
2018-10-09T16:32:19.515Z,17.50
2018-10-09T16:37:22.954Z,17.00
2018-10-09T16:42:26.418Z,16.00
2018-10-09T16:47:29.923Z,18.75
2018-10-09T16:52:33.374Z,17.20
2018-10-09T16:57:36.853Z,15.25
2018-10-09T17:02:40.313Z,15.00
2018-10-09T17:07:43.801Z,16.00
2018-10-09T17:12:47.268Z,15.00
2018-10-09T17:17:50.751Z,15.75
2018-10-09T17:22:54.210Z,17.80
2018-10-09T17:27:57.685Z,19.50
2018-10-09T17:33:01.218Z,16.20
2018-10-09T17:38:04.642Z,18.75
2018-10-09T17:43:08.290Z,17.60
2018-10-09T17:48:11.784Z,19.00
2018-10-09T17:53:15.255Z,18.00
2018-10-09T17:58:18.749Z,19.75
2018-10-09T18:03:22.344Z,18.00
2018-10-09T18:08:25.965Z,18.50
2018-10-09T18:13:29.426Z,18.00
2018-10-09T18:18:32.889Z,16.00
2018-10-09T18:23:36.313Z,18.75
2018-10-09T18:28:39.776Z,18.00
2018-10-09T18:33:43.236Z,17.80
2018-10-09T18:38:46.675Z,16.50
2018-10-09T18:43:50.141Z,15.75
2018-10-09T18:48:53.580Z,18.00
2018-10-09T18:53:57.026Z,17.80
2018-10-09T18:59:00.558Z,18.00
2018-10-09T19:04:04.029Z,16.50
2018-10-09T19:09:10.556Z,18.00
2018-10-09T19:14:13.962Z,17.00
2018-10-09T19:19:17.408Z,16.50
2018-10-09T19:24:20.954Z,16.60
2018-10-09T19:29:24.542Z,16.00
2018-10-09T19:34:28.113Z,18.00
2018-10-09T19:39:31.593Z,19.00
2018-10-09T19:44:35.211Z,18.20
2018-10-09T19:49:38.696Z,18.00
